createdAt,value
2022-10-23T00:04:52.512Z,66.45
2022-10-23T00:09:54.474Z,66.21
2022-10-23T00:14:56.503Z,66.46
2022-10-23T00:19:58.679Z,66.56
2022-10-23T00:25:00.600Z,66.09
2022-10-23T00:30:03.776Z,67.36
2022-10-23T00:35:06.121Z,64.14
2022-10-23T00:40:08.498Z,66.82
2022-10-23T00:45:12.728Z,66.67
2022-10-23T00:50:14.955Z,66.34
2022-10-23T00:55:18.408Z,66.11
2022-10-23T01:00:25.168Z,67.01
2022-10-23T01:05:40.444Z,67.12
2022-10-23T01:10:45.791Z,66.99
2022-10-23T01:15:47.674Z,67.79
2022-10-23T01:21:04.765Z,67.34
2022-10-23T01:26:15.699Z,67.47
2022-10-23T01:31:35.617Z,67.90
2022-10-23T01:36:40.634Z,67.85
2022-10-23T01:41:46.482Z,67.55
2022-10-23T01:46:54.032Z,67.77
2022-10-23T01:51:58.706Z,68.39
2022-10-23T01:57:01.560Z,68.04
2022-10-23T02:02:06.800Z,67.83
2022-10-23T02:07:09.020Z,67.48
2022-10-23T02:12:19.329Z,68.08
2022-10-23T02:17:42.980Z,67.68
2022-10-23T02:23:03.471Z,67.71
2022-10-23T02:28:08.039Z,68.54
2022-10-23T02:33:17.872Z,68.49
2022-10-23T02:38:28.709Z,68.59
2022-10-23T02:43:36.964Z,67.94
2022-10-23T02:48:43.229Z,68.17
2022-10-23T02:54:00.906Z,68.72
2022-10-23T02:59:27.915Z,68.22
2022-10-23T03:04:30.889Z,68.79
2022-10-23T03:09:32.784Z,68.90
2022-10-23T03:14:34.749Z,68.88
2022-10-23T03:19:37.725Z,68.63
2022-10-23T03:24:40.249Z,68.86
2022-10-23T03:29:42.934Z,68.48
2022-10-23T03:34:44.946Z,69.31
2022-10-23T03:39:46.873Z,69.17
2022-10-23T03:44:49.576Z,69.48
2022-10-23T03:49:53.613Z,68.63
2022-10-23T03:54:55.598Z,69.02
2022-10-23T03:59:58.649Z,69.02
2022-10-23T04:05:05.545Z,69.79
2022-10-23T04:10:08.817Z,69.77
2022-10-23T04:15:11.004Z,69.27
2022-10-23T04:20:13.081Z,69.30
2022-10-23T04:25:16.645Z,69.62
2022-10-23T04:30:19.390Z,69.65
2022-10-23T04:35:22.046Z,69.58
2022-10-23T04:40:24.143Z,69.29
2022-10-23T04:45:28.719Z,70.23
2022-10-23T04:50:30.821Z,69.94
2022-10-23T04:56:01.672Z,70.76
2022-10-23T05:01:23.027Z,70.53
2022-10-23T05:06:25.151Z,70.76
2022-10-23T05:11:50.741Z,69.98
2022-10-23T05:17:00.941Z,69.79
2022-10-23T05:22:04.266Z,69.80
2022-10-23T05:27:21.087Z,68.83
2022-10-23T05:32:24.856Z,69.24
2022-10-23T05:37:28.279Z,68.62
2022-10-23T05:42:41.813Z,68.75
2022-10-23T05:47:46.378Z,69.06
2022-10-23T05:53:02.764Z,69.06
2022-10-23T05:58:09.226Z,69.06
2022-10-23T06:03:34.174Z,69.05
2022-10-23T06:08:38.629Z,69.63
2022-10-23T06:13:43.088Z,68.88
2022-10-23T06:18:46.198Z,69.63
2022-10-23T06:23:50.716Z,69.38
2022-10-23T06:28:55.844Z,69.53
2022-10-23T06:33:58.903Z,68.55
2022-10-23T06:39:01.587Z,68.98
2022-10-23T06:44:23.483Z,68.44
2022-10-23T06:49:29.765Z,69.41
2022-10-23T06:54:33.560Z,68.96
2022-10-23T06:59:54.870Z,68.50
2022-10-23T07:04:56.925Z,69.15
2022-10-23T07:09:58.950Z,68.41
2022-10-23T07:15:15.886Z,68.12
2022-10-23T07:20:18.669Z,68.21
2022-10-23T07:25:24.749Z,68.57
2022-10-23T07:30:27.613Z,68.27
2022-10-23T07:35:33.067Z,67.79
2022-10-23T07:40:42.714Z,67.74
2022-10-23T07:45:49.692Z,67.41
2022-10-23T07:51:09.097Z,67.54
2022-10-23T07:56:22.489Z,68.00
2022-10-23T08:01:50.485Z,67.70
2022-10-23T08:06:56.181Z,67.55
2022-10-23T08:11:59.424Z,67.36
2022-10-23T08:17:03.309Z,67.18
2022-10-23T08:22:23.507Z,67.54
2022-10-23T08:27:26.344Z,67.81
2022-10-23T08:32:31.560Z,67.64
2022-10-23T08:37:37.851Z,67.50
2022-10-23T08:42:42.808Z,67.55
2022-10-23T08:47:48.252Z,67.64
2022-10-23T08:53:25.100Z,67.70
2022-10-23T08:58:42.744Z,66.47
2022-10-23T09:03:45.743Z,66.69
2022-10-23T09:08:48.517Z,67.08
2022-10-23T09:14:14.364Z,67.46
2022-10-23T09:19:17.794Z,66.96
2022-10-23T09:24:22.107Z,68.17
2022-10-23T09:29:28.755Z,67.52
2022-10-23T09:34:31.491Z,67.40
2022-10-23T09:39:34.973Z,67.15
2022-10-23T09:44:48.119Z,67.32
2022-10-23T09:49:52.223Z,67.82
2022-10-23T09:54:55.881Z,67.30
2022-10-23T10:00:02.393Z,66.61
2022-10-23T10:05:28.079Z,67.05
2022-10-23T10:10:37.975Z,66.93
2022-10-23T10:15:58.560Z,66.60
2022-10-23T10:21:20.639Z,67.35
2022-10-23T10:26:34.559Z,67.33
2022-10-23T10:31:55.123Z,67.57
2022-10-23T10:37:02.074Z,67.39
2022-10-23T10:42:42.984Z,67.77
2022-10-23T10:47:47.901Z,67.89
2022-10-23T10:52:55.796Z,68.48
2022-10-23T10:58:00.177Z,68.08
2022-10-23T11:03:20.770Z,67.97
2022-10-23T11:08:56.167Z,68.29
2022-10-23T11:14:02.281Z,68.11
2022-10-23T11:19:14.149Z,67.96
2022-10-23T11:24:31.271Z,67.77
2022-10-23T11:29:40.965Z,68.68
2022-10-23T11:34:45.625Z,68.70
2022-10-23T11:39:59.950Z,68.77
2022-10-23T11:45:01.916Z,68.68
2022-10-23T11:50:08.401Z,69.29
2022-10-23T11:55:21.736Z,69.09
2022-10-23T12:00:23.861Z,69.74
2022-10-23T12:05:45.798Z,69.23
2022-10-23T12:10:55.579Z,69.36
2022-10-23T12:16:00.129Z,69.17
2022-10-23T12:21:04.663Z,69.43
2022-10-23T12:26:12.735Z,69.45
2022-10-23T12:31:29.287Z,69.68
2022-10-23T12:36:45.629Z,69.80
2022-10-23T12:41:47.679Z,69.78
2022-10-23T12:46:51.024Z,69.95
2022-10-23T12:51:57.576Z,70.42
2022-10-23T12:57:00.132Z,69.77
2022-10-23T13:02:02.338Z,70.11
2022-10-23T13:07:04.513Z,70.09
2022-10-23T13:12:09.036Z,70.55
2022-10-23T13:17:12.035Z,70.58
2022-10-23T13:22:19.695Z,70.50
2022-10-23T13:27:26.097Z,70.35
2022-10-23T13:32:29.796Z,70.63
2022-10-23T13:37:31.831Z,70.47
2022-10-23T13:42:34.031Z,70.81
2022-10-23T13:47:35.907Z,70.62
2022-10-23T13:52:37.804Z,70.70
2022-10-23T13:57:39.752Z,70.95
2022-10-23T14:02:42.476Z,71.00
2022-10-23T14:07:45.052Z,71.03
2022-10-23T14:12:47.736Z,71.19
2022-10-23T14:17:49.955Z,70.98
2022-10-23T14:22:51.916Z,71.24
2022-10-23T14:32:57.554Z,71.55
2022-10-23T14:37:59.525Z,71.38
2022-10-23T14:43:01.480Z,71.45
2022-10-23T14:48:03.467Z,71.54
2022-10-23T14:53:05.494Z,71.30
2022-10-23T14:58:07.583Z,71.33
2022-10-23T15:03:09.531Z,71.25
2022-10-23T15:08:11.572Z,71.38
2022-10-23T15:13:13.651Z,71.50
2022-10-23T15:18:15.633Z,71.68
2022-10-23T15:23:17.558Z,71.25
2022-10-23T15:28:19.482Z,71.55
2022-10-23T15:33:21.846Z,71.37
2022-10-23T15:38:24.583Z,71.73
2022-10-23T15:43:26.639Z,71.71
2022-10-23T15:48:28.558Z,71.96
2022-10-23T15:53:30.617Z,71.73
2022-10-23T15:58:32.682Z,71.95
2022-10-23T16:03:35.101Z,71.75
2022-10-23T16:08:37.114Z,72.00
2022-10-23T16:13:39.118Z,72.28
2022-10-23T16:18:41.472Z,71.74
2022-10-23T16:23:43.400Z,72.00
2022-10-23T16:28:47.235Z,72.29
2022-10-23T16:33:50.051Z,72.16
2022-10-23T16:38:52.049Z,72.19
2022-10-23T16:43:58.929Z,72.11
2022-10-23T16:49:21.084Z,71.95
2022-10-23T16:54:23.025Z,72.33
2022-10-23T16:59:24.928Z,72.41
2022-10-23T17:04:26.798Z,72.24
2022-10-23T17:09:31.355Z,72.21
2022-10-23T17:14:33.417Z,72.50
2022-10-23T17:19:45.452Z,72.54
2022-10-23T17:24:51.477Z,72.64
2022-10-23T17:29:55.980Z,72.66
2022-10-23T17:34:57.960Z,72.82
2022-10-23T17:40:02.575Z,73.09
2022-10-23T17:45:05.678Z,73.08
2022-10-23T17:50:09.616Z,73.23
2022-10-23T17:55:12.670Z,73.10
2022-10-23T18:00:16.277Z,73.43
2022-10-23T18:05:18.226Z,73.41
2022-10-23T18:10:20.222Z,73.44
2022-10-23T18:15:22.252Z,73.36
2022-10-23T18:20:24.181Z,73.58
2022-10-23T18:25:26.141Z,73.49
2022-10-23T18:30:28.095Z,73.86
2022-10-23T18:35:33.398Z,73.81
2022-10-23T18:40:36.349Z,73.86
2022-10-23T18:45:42.039Z,74.05
2022-10-23T18:50:43.934Z,73.95
2022-10-23T18:55:49.435Z,73.96
2022-10-23T19:00:51.473Z,74.18
2022-10-23T19:05:53.944Z,73.55
2022-10-23T19:10:57.498Z,73.90
2022-10-23T19:15:59.586Z,74.00
2022-10-23T19:21:04.537Z,74.19
2022-10-23T19:26:09.973Z,73.95
2022-10-23T19:31:12.223Z,74.56
2022-10-23T19:36:14.667Z,74.29
2022-10-23T19:41:18.242Z,74.74
2022-10-23T19:46:20.256Z,74.28
2022-10-23T19:51:22.159Z,74.46
2022-10-23T19:56:24.676Z,74.58
2022-10-23T20:01:26.876Z,74.22
2022-10-23T20:06:31.643Z,74.58
2022-10-23T20:11:33.754Z,74.47
2022-10-23T20:16:37.122Z,74.59
2022-10-23T20:21:40.732Z,74.58
2022-10-23T20:26:45.237Z,74.40
2022-10-23T20:31:47.669Z,74.37
2022-10-23T20:36:49.830Z,74.15
2022-10-23T20:41:52.469Z,74.20
2022-10-23T20:46:54.887Z,74.20
2022-10-23T20:51:57.051Z,74.26
2022-10-23T20:56:59.020Z,73.87
2022-10-23T21:02:00.998Z,74.01
2022-10-23T21:07:11.424Z,73.95
2022-10-23T21:12:15.795Z,73.96
2022-10-23T21:17:18.775Z,73.88
2022-10-23T21:22:20.715Z,74.17
2022-10-23T21:27:22.710Z,73.89
2022-10-23T21:32:24.671Z,73.86
2022-10-23T21:37:26.614Z,73.83
2022-10-23T21:47:33.080Z,73.74
2022-10-23T21:52:35.013Z,73.92
2022-10-23T21:57:36.921Z,74.16
2022-10-23T22:02:38.888Z,73.93
2022-10-23T22:07:40.995Z,73.81
2022-10-23T22:12:43.062Z,73.80
2022-10-23T22:17:45.143Z,73.62
2022-10-23T22:22:47.240Z,73.97
2022-10-23T22:27:49.149Z,73.76
2022-10-23T22:32:51.176Z,73.76
2022-10-23T22:37:53.117Z,73.37
2022-10-23T22:42:55.086Z,73.61
2022-10-23T22:47:57.112Z,73.75
2022-10-23T22:52:59.044Z,73.71
2022-10-23T22:58:00.958Z,73.86
2022-10-23T23:03:03.138Z,73.87
2022-10-23T23:08:05.246Z,73.53
2022-10-23T23:13:07.697Z,73.68
2022-10-23T23:18:09.683Z,73.52
2022-10-23T23:23:14.356Z,73.37
2022-10-23T23:28:17.878Z,73.39
2022-10-23T23:33:19.842Z,73.66
2022-10-23T23:38:21.801Z,73.44
2022-10-23T23:43:23.779Z,73.51
2022-10-23T23:48:25.946Z,73.44
2022-10-23T23:53:27.913Z,73.35
2022-10-23T23:58:29.974Z,73.41
